Pixley, California
Current Conditions -  °F | °C
As of 12:35 PM on Thursday 27 Nov 2014 (Local Time) from KPTV Reporting Station
Clear Clear  
Wind Chill: 21°   Ceiling: Unl
Heat Index: 21°   Visibility: 5mi
Dew Point:   Wind: 5mph
Humidity: 46%   Direction: 300°WNW
Pressure: 30.14"   Gusts: NA
Location:  35.97°N, 119.29°W
Report Text: KPTV 272035Z AUTO 30004KT 5SM CLR 21/09 A3014 RMK AO1
Loading
Personal Weather Stations






























Interactive Weather Map New forecast layout! Learn more

10-Day Weather Forecast

Advertisements
Track Severe Weather on mobile